sensor_id;sensor_type;location;lat;lon;timestamp;P1;durP1;ratioP1;P2;durP2;ratioP2
58338;SDS011;68636;52.704;6.536;2024-01-07T00:00:35;20.85;;;9.48;;
58338;SDS011;68636;52.704;6.536;2024-01-07T00:03:02;19.33;;;8.13;;
58338;SDS011;68636;52.704;6.536;2024-01-07T00:05:28;20.10;;;7.88;;
58338;SDS011;68636;52.704;6.536;2024-01-07T00:07:54;16.13;;;6.85;;
58338;SDS011;68636;52.704;6.536;2024-01-07T00:10:20;20.70;;;8.65;;
58338;SDS011;68636;52.704;6.536;2024-01-07T00:12:46;23.73;;;13.90;;
58338;SDS011;68636;52.704;6.536;2024-01-07T00:15:13;18.48;;;8.77;;
58338;SDS011;68636;52.704;6.536;2024-01-07T00:17:39;24.23;;;9.88;;
58338;SDS011;68636;52.704;6.536;2024-01-07T00:20:05;24.05;;;9.43;;
58338;SDS011;68636;52.704;6.536;2024-01-07T00:22:32;24.52;;;10.25;;
58338;SDS011;68636;52.704;6.536;2024-01-07T00:24:58;24.50;;;9.55;;
58338;SDS011;68636;52.704;6.536;2024-01-07T00:27:24;21.25;;;10.23;;
58338;SDS011;68636;52.704;6.536;2024-01-07T00:29:50;21.77;;;7.50;;
58338;SDS011;68636;52.704;6.536;2024-01-07T00:32:16;23.08;;;11.25;;
58338;SDS011;68636;52.704;6.536;2024-01-07T00:34:42;21.60;;;9.95;;
58338;SDS011;68636;52.704;6.536;2024-01-07T00:37:08;23.95;;;10.05;;
58338;SDS011;68636;52.704;6.536;2024-01-07T00:39:34;22.20;;;9.48;;
58338;SDS011;68636;52.704;6.536;2024-01-07T00:42:00;24.83;;;9.35;;
58338;SDS011;68636;52.704;6.536;2024-01-07T00:44:26;26.40;;;9.88;;
58338;SDS011;68636;52.704;6.536;2024-01-07T00:46:53;24.52;;;9.30;;
58338;SDS011;68636;52.704;6.536;2024-01-07T00:49:19;21.33;;;8.50;;
58338;SDS011;68636;52.704;6.536;2024-01-07T00:51:45;23.42;;;11.13;;
58338;SDS011;68636;52.704;6.536;2024-01-07T00:54:11;24.83;;;14.68;;
58338;SDS011;68636;52.704;6.536;2024-01-07T00:56:37;24.05;;;12.43;;
58338;SDS011;68636;52.704;6.536;2024-01-07T00:59:03;22.30;;;9.75;;
58338;SDS011;68636;52.704;6.536;2024-01-07T01:01:29;20.50;;;8.80;;
58338;SDS011;68636;52.704;6.536;2024-01-07T01:03:55;15.82;;;6.68;;
58338;SDS011;68636;52.704;6.536;2024-01-07T01:08:49;22.42;;;8.82;;
58338;SDS011;68636;52.704;6.536;2024-01-07T01:11:15;14.25;;;5.95;;
58338;SDS011;68636;52.704;6.536;2024-01-07T01:13:41;18.13;;;7.95;;
58338;SDS011;68636;52.704;6.536;2024-01-07T01:16:07;21.80;;;8.30;;
58338;SDS011;68636;52.704;6.536;2024-01-07T01:18:33;17.42;;;7.55;;
58338;SDS011;68636;52.704;6.536;2024-01-07T01:20:59;19.33;;;8.40;;
58338;SDS011;68636;52.704;6.536;2024-01-07T01:23:25;20.25;;;8.30;;
58338;SDS011;68636;52.704;6.536;2024-01-07T01:25:51;20.98;;;10.70;;
58338;SDS011;68636;52.704;6.536;2024-01-07T01:28:17;18.88;;;7.82;;
58338;SDS011;68636;52.704;6.536;2024-01-07T01:30:43;18.85;;;7.85;;
58338;SDS011;68636;52.704;6.536;2024-01-07T01:33:10;20.20;;;7.78;;
58338;SDS011;68636;52.704;6.536;2024-01-07T01:35:36;18.75;;;7.85;;
58338;SDS011;68636;52.704;6.536;2024-01-07T01:38:02;18.58;;;7.68;;
58338;SDS011;68636;52.704;6.536;2024-01-07T01:40:28;15.10;;;6.70;;
58338;SDS011;68636;52.704;6.536;2024-01-07T01:42:54;19.58;;;8.30;;
58338;SDS011;68636;52.704;6.536;2024-01-07T01:45:20;22.00;;;9.63;;
58338;SDS011;68636;52.704;6.536;2024-01-07T01:47:46;16.45;;;7.00;;
58338;SDS011;68636;52.704;6.536;2024-01-07T01:50:13;15.38;;;5.38;;
58338;SDS011;68636;52.704;6.536;2024-01-07T01:52:40;18.75;;;6.90;;
58338;SDS011;68636;52.704;6.536;2024-01-07T01:57:34;20.13;;;8.00;;
58338;SDS011;68636;52.704;6.536;2024-01-07T02:00:01;18.70;;;7.90;;
58338;SDS011;68636;52.704;6.536;2024-01-07T02:02:32;15.38;;;5.93;;
58338;SDS011;68636;52.704;6.536;2024-01-07T02:05:01;21.73;;;8.57;;
58338;SDS011;68636;52.704;6.536;2024-01-07T02:07:28;17.73;;;8.07;;
58338;SDS011;68636;52.704;6.536;2024-01-07T02:09:54;17.67;;;7.18;;
58338;SDS011;68636;52.704;6.536;2024-01-07T02:12:20;20.35;;;10.10;;
58338;SDS011;68636;52.704;6.536;2024-01-07T02:14:47;18.23;;;7.40;;
58338;SDS011;68636;52.704;6.536;2024-01-07T02:17:13;17.77;;;8.40;;
58338;SDS011;68636;52.704;6.536;2024-01-07T02:19:40;26.08;;;11.88;;
58338;SDS011;68636;52.704;6.536;2024-01-07T02:22:06;19.33;;;8.13;;
58338;SDS011;68636;52.704;6.536;2024-01-07T02:24:32;18.17;;;6.72;;
58338;SDS011;68636;52.704;6.536;2024-01-07T02:26:58;19.67;;;8.80;;
58338;SDS011;68636;52.704;6.536;2024-01-07T02:29:28;18.83;;;8.80;;
58338;SDS011;68636;52.704;6.536;2024-01-07T02:31:54;24.33;;;10.60;;
58338;SDS011;68636;52.704;6.536;2024-01-07T02:34:20;20.63;;;8.05;;
58338;SDS011;68636;52.704;6.536;2024-01-07T02:36:46;21.48;;;10.38;;
58338;SDS011;68636;52.704;6.536;2024-01-07T02:39:12;14.13;;;6.15;;
58338;SDS011;68636;52.704;6.536;2024-01-07T02:41:38;20.33;;;8.55;;
58338;SDS011;68636;52.704;6.536;2024-01-07T02:44:05;16.90;;;7.15;;
58338;SDS011;68636;52.704;6.536;2024-01-07T02:46:31;20.80;;;8.25;;
58338;SDS011;68636;52.704;6.536;2024-01-07T02:48:57;21.67;;;9.88;;
58338;SDS011;68636;52.704;6.536;2024-01-07T02:51:23;18.10;;;8.02;;
58338;SDS011;68636;52.704;6.536;2024-01-07T02:53:49;19.10;;;8.30;;
58338;SDS011;68636;52.704;6.536;2024-01-07T02:56:15;20.70;;;8.57;;
58338;SDS011;68636;52.704;6.536;2024-01-07T02:58:41;15.65;;;6.80;;
58338;SDS011;68636;52.704;6.536;2024-01-07T03:01:10;19.17;;;7.78;;
58338;SDS011;68636;52.704;6.536;2024-01-07T03:03:37;18.30;;;7.68;;
58338;SDS011;68636;52.704;6.536;2024-01-07T03:06:03;18.35;;;7.50;;
58338;SDS011;68636;52.704;6.536;2024-01-07T03:08:29;17.50;;;7.53;;
58338;SDS011;68636;52.704;6.536;2024-01-07T03:10:55;18.33;;;7.60;;
58338;SDS011;68636;52.704;6.536;2024-01-07T03:13:21;17.65;;;6.53;;
58338;SDS011;68636;52.704;6.536;2024-01-07T03:15:47;18.17;;;8.13;;
58338;SDS011;68636;52.704;6.536;2024-01-07T03:18:13;16.15;;;7.20;;
58338;SDS011;68636;52.704;6.536;2024-01-07T03:20:39;15.45;;;6.20;;
58338;SDS011;68636;52.704;6.536;2024-01-07T03:23:06;16.65;;;7.18;;
58338;SDS011;68636;52.704;6.536;2024-01-07T03:25:32;16.65;;;7.20;;
58338;SDS011;68636;52.704;6.536;2024-01-07T03:27:58;14.68;;;6.03;;
58338;SDS011;68636;52.704;6.536;2024-01-07T03:30:24;16.58;;;6.57;;
58338;SDS011;68636;52.704;6.536;2024-01-07T03:32:50;19.05;;;9.00;;
58338;SDS011;68636;52.704;6.536;2024-01-07T03:35:16;15.95;;;6.70;;
58338;SDS011;68636;52.704;6.536;2024-01-07T03:37:42;19.50;;;7.65;;
58338;SDS011;68636;52.704;6.536;2024-01-07T03:40:09;17.05;;;6.57;;
58338;SDS011;68636;52.704;6.536;2024-01-07T03:42:36;16.98;;;7.68;;
58338;SDS011;68636;52.704;6.536;2024-01-07T03:45:03;19.33;;;8.07;;
58338;SDS011;68636;52.704;6.536;2024-01-07T03:47:29;17.37;;;7.27;;
58338;SDS011;68636;52.704;6.536;2024-01-07T03:49:56;16.73;;;6.80;;
58338;SDS011;68636;52.704;6.536;2024-01-07T03:52:22;20.52;;;7.80;;
58338;SDS011;68636;52.704;6.536;2024-01-07T03:54:48;18.60;;;8.20;;
58338;SDS011;68636;52.704;6.536;2024-01-07T03:57:14;21.65;;;8.48;;
58338;SDS011;68636;52.704;6.536;2024-01-07T03:59:40;16.50;;;7.75;;
58338;SDS011;68636;52.704;6.536;2024-01-07T04:02:06;20.85;;;8.50;;
58338;SDS011;68636;52.704;6.536;2024-01-07T04:04:32;17.25;;;7.13;;
58338;SDS011;68636;52.704;6.536;2024-01-07T04:06:58;18.08;;;7.82;;
58338;SDS011;68636;52.704;6.536;2024-01-07T04:09:25;16.92;;;6.60;;
58338;SDS011;68636;52.704;6.536;2024-01-07T04:11:51;15.88;;;7.90;;
58338;SDS011;68636;52.704;6.536;2024-01-07T04:14:17;17.33;;;7.38;;
58338;SDS011;68636;52.704;6.536;2024-01-07T04:16:43;11.63;;;4.93;;
58338;SDS011;68636;52.704;6.536;2024-01-07T04:19:09;16.13;;;6.55;;
58338;SDS011;68636;52.704;6.536;2024-01-07T04:21:35;11.95;;;5.32;;
58338;SDS011;68636;52.704;6.536;2024-01-07T04:24:01;12.93;;;6.00;;
58338;SDS011;68636;52.704;6.536;2024-01-07T04:26:27;12.43;;;5.82;;
58338;SDS011;68636;52.704;6.536;2024-01-07T04:28:53;15.18;;;6.85;;
58338;SDS011;68636;52.704;6.536;2024-01-07T04:31:20;14.80;;;5.97;;
58338;SDS011;68636;52.704;6.536;2024-01-07T04:33:46;16.77;;;7.38;;
58338;SDS011;68636;52.704;6.536;2024-01-07T04:36:12;12.68;;;4.40;;
58338;SDS011;68636;52.704;6.536;2024-01-07T04:38:38;10.95;;;4.22;;
58338;SDS011;68636;52.704;6.536;2024-01-07T04:41:04;17.63;;;6.28;;
58338;SDS011;68636;52.704;6.536;2024-01-07T04:43:32;14.15;;;6.32;;
58338;SDS011;68636;52.704;6.536;2024-01-07T04:45:58;14.63;;;6.35;;
58338;SDS011;68636;52.704;6.536;2024-01-07T04:48:24;10.32;;;3.97;;
58338;SDS011;68636;52.704;6.536;2024-01-07T04:50:50;15.45;;;7.47;;
58338;SDS011;68636;52.704;6.536;2024-01-07T04:53:16;12.48;;;4.88;;
58338;SDS011;68636;52.704;6.536;2024-01-07T04:55:42;14.13;;;6.20;;
58338;SDS011;68636;52.704;6.536;2024-01-07T04:58:08;15.00;;;6.18;;
58338;SDS011;68636;52.704;6.536;2024-01-07T05:00:34;15.68;;;6.93;;
58338;SDS011;68636;52.704;6.536;2024-01-07T05:03:00;19.13;;;9.88;;
58338;SDS011;68636;52.704;6.536;2024-01-07T05:05:26;11.50;;;5.05;;
58338;SDS011;68636;52.704;6.536;2024-01-07T05:07:53;16.48;;;7.15;;
58338;SDS011;68636;52.704;6.536;2024-01-07T05:10:19;9.98;;;3.83;;
58338;SDS011;68636;52.704;6.536;2024-01-07T05:12:45;15.50;;;6.15;;
58338;SDS011;68636;52.704;6.536;2024-01-07T05:15:11;12.95;;;5.05;;
58338;SDS011;68636;52.704;6.536;2024-01-07T05:17:37;14.77;;;6.68;;
58338;SDS011;68636;52.704;6.536;2024-01-07T05:20:03;16.20;;;6.50;;
58338;SDS011;68636;52.704;6.536;2024-01-07T05:22:31;10.32;;;3.83;;
58338;SDS011;68636;52.704;6.536;2024-01-07T05:24:57;15.35;;;8.43;;
58338;SDS011;68636;52.704;6.536;2024-01-07T05:27:23;14.23;;;6.07;;
58338;SDS011;68636;52.704;6.536;2024-01-07T05:29:49;14.98;;;5.20;;
58338;SDS011;68636;52.704;6.536;2024-01-07T05:32:15;14.18;;;5.95;;
58338;SDS011;68636;52.704;6.536;2024-01-07T05:34:41;11.95;;;5.47;;
58338;SDS011;68636;52.704;6.536;2024-01-07T05:37:07;13.77;;;4.75;;
58338;SDS011;68636;52.704;6.536;2024-01-07T05:39:34;13.40;;;4.82;;
58338;SDS011;68636;52.704;6.536;2024-01-07T05:42:00;11.13;;;4.65;;
58338;SDS011;68636;52.704;6.536;2024-01-07T05:44:26;13.40;;;5.65;;
58338;SDS011;68636;52.704;6.536;2024-01-07T05:46:52;12.80;;;5.82;;
58338;SDS011;68636;52.704;6.536;2024-01-07T05:49:18;11.98;;;3.80;;
58338;SDS011;68636;52.704;6.536;2024-01-07T05:51:44;10.20;;;5.53;;
58338;SDS011;68636;52.704;6.536;2024-01-07T05:54:10;13.88;;;4.95;;
58338;SDS011;68636;52.704;6.536;2024-01-07T05:56:39;11.88;;;2.85;;
58338;SDS011;68636;52.704;6.536;2024-01-07T05:59:06;8.52;;;3.60;;
58338;SDS011;68636;52.704;6.536;2024-01-07T06:01:32;14.98;;;5.93;;
58338;SDS011;68636;52.704;6.536;2024-01-07T06:03:58;12.30;;;3.92;;
58338;SDS011;68636;52.704;6.536;2024-01-07T06:06:24;10.00;;;3.80;;
58338;SDS011;68636;52.704;6.536;2024-01-07T06:08:50;11.70;;;3.85;;
58338;SDS011;68636;52.704;6.536;2024-01-07T06:11:16;10.00;;;3.08;;
58338;SDS011;68636;52.704;6.536;2024-01-07T06:13:45;6.85;;;2.95;;
58338;SDS011;68636;52.704;6.536;2024-01-07T06:16:11;13.77;;;5.05;;
58338;SDS011;68636;52.704;6.536;2024-01-07T06:18:37;6.22;;;2.55;;
58338;SDS011;68636;52.704;6.536;2024-01-07T06:21:04;9.70;;;4.03;;
58338;SDS011;68636;52.704;6.536;2024-01-07T06:23:32;9.85;;;2.17;;
58338;SDS011;68636;52.704;6.536;2024-01-07T06:25:58;7.82;;;2.60;;
58338;SDS011;68636;52.704;6.536;2024-01-07T06:28:24;10.35;;;2.75;;
58338;SDS011;68636;52.704;6.536;2024-01-07T06:30:50;7.80;;;2.13;;
58338;SDS011;68636;52.704;6.536;2024-01-07T06:33:17;6.68;;;2.63;;
58338;SDS011;68636;52.704;6.536;2024-01-07T06:35:43;6.90;;;1.98;;
58338;SDS011;68636;52.704;6.536;2024-01-07T06:38:10;14.25;;;3.33;;
58338;SDS011;68636;52.704;6.536;2024-01-07T06:40:36;7.10;;;2.28;;
58338;SDS011;68636;52.704;6.536;2024-01-07T06:43:02;5.72;;;1.65;;
58338;SDS011;68636;52.704;6.536;2024-01-07T06:45:28;5.20;;;1.85;;
58338;SDS011;68636;52.704;6.536;2024-01-07T06:47:54;5.07;;;1.42;;
58338;SDS011;68636;52.704;6.536;2024-01-07T06:50:20;6.93;;;2.38;;
58338;SDS011;68636;52.704;6.536;2024-01-07T06:52:47;6.22;;;1.60;;
58338;SDS011;68636;52.704;6.536;2024-01-07T06:55:13;7.88;;;2.40;;
58338;SDS011;68636;52.704;6.536;2024-01-07T06:57:39;5.40;;;2.00;;
58338;SDS011;68636;52.704;6.536;2024-01-07T07:00:05;5.43;;;2.03;;
58338;SDS011;68636;52.704;6.536;2024-01-07T07:02:32;6.40;;;1.83;;
58338;SDS011;68636;52.704;6.536;2024-01-07T07:04:59;4.63;;;1.65;;
58338;SDS011;68636;52.704;6.536;2024-01-07T07:07:25;3.75;;;1.25;;
58338;SDS011;68636;52.704;6.536;2024-01-07T07:09:51;4.35;;;1.50;;
58338;SDS011;68636;52.704;6.536;2024-01-07T07:12:17;6.35;;;1.80;;
58338;SDS011;68636;52.704;6.536;2024-01-07T07:14:43;5.38;;;1.55;;
58338;SDS011;68636;52.704;6.536;2024-01-07T07:17:09;3.35;;;1.00;;
58338;SDS011;68636;52.704;6.536;2024-01-07T07:19:35;3.90;;;1.30;;
58338;SDS011;68636;52.704;6.536;2024-01-07T07:22:02;4.90;;;1.60;;
58338;SDS011;68636;52.704;6.536;2024-01-07T07:24:28;2.72;;;0.90;;
58338;SDS011;68636;52.704;6.536;2024-01-07T07:26:54;3.42;;;1.25;;
58338;SDS011;68636;52.704;6.536;2024-01-07T07:29:20;5.05;;;1.73;;
58338;SDS011;68636;52.704;6.536;2024-01-07T07:31:46;5.07;;;1.50;;
58338;SDS011;68636;52.704;6.536;2024-01-07T07:34:13;3.60;;;0.70;;
58338;SDS011;68636;52.704;6.536;2024-01-07T07:36:39;3.88;;;1.10;;
58338;SDS011;68636;52.704;6.536;2024-01-07T07:39:06;2.53;;;0.88;;
58338;SDS011;68636;52.704;6.536;2024-01-07T07:41:34;3.25;;;1.30;;
58338;SDS011;68636;52.704;6.536;2024-01-07T07:44:00;6.15;;;1.33;;
58338;SDS011;68636;52.704;6.536;2024-01-07T07:46:26;5.20;;;1.60;;
58338;SDS011;68636;52.704;6.536;2024-01-07T07:48:52;4.15;;;1.10;;
58338;SDS011;68636;52.704;6.536;2024-01-07T07:51:18;3.45;;;0.82;;
58338;SDS011;68636;52.704;6.536;2024-01-07T07:53:45;3.72;;;1.20;;
58338;SDS011;68636;52.704;6.536;2024-01-07T07:56:11;4.40;;;1.45;;
58338;SDS011;68636;52.704;6.536;2024-01-07T07:58:37;3.28;;;1.08;;
58338;SDS011;68636;52.704;6.536;2024-01-07T08:01:04;2.30;;;0.80;;
58338;SDS011;68636;52.704;6.536;2024-01-07T08:03:31;6.25;;;1.63;;
58338;SDS011;68636;52.704;6.536;2024-01-07T08:05:57;6.67;;;1.80;;
58338;SDS011;68636;52.704;6.536;2024-01-07T08:08:24;1.98;;;0.80;;
58338;SDS011;68636;52.704;6.536;2024-01-07T08:10:50;4.35;;;1.38;;
58338;SDS011;68636;52.704;6.536;2024-01-07T08:13:16;5.00;;;1.15;;
58338;SDS011;68636;52.704;6.536;2024-01-07T08:15:42;2.53;;;0.95;;
58338;SDS011;68636;52.704;6.536;2024-01-07T08:18:08;7.18;;;1.83;;
58338;SDS011;68636;52.704;6.536;2024-01-07T08:20:34;7.60;;;2.03;;
58338;SDS011;68636;52.704;6.536;2024-01-07T08:23:01;3.80;;;1.05;;
58338;SDS011;68636;52.704;6.536;2024-01-07T08:25:27;5.00;;;1.00;;
58338;SDS011;68636;52.704;6.536;2024-01-07T08:27:53;5.38;;;1.50;;
58338;SDS011;68636;52.704;6.536;2024-01-07T08:30:19;4.68;;;1.27;;
58338;SDS011;68636;52.704;6.536;2024-01-07T08:32:46;7.40;;;2.03;;
58338;SDS011;68636;52.704;6.536;2024-01-07T08:35:12;7.40;;;1.20;;
58338;SDS011;68636;52.704;6.536;2024-01-07T08:37:38;5.07;;;1.50;;
58338;SDS011;68636;52.704;6.536;2024-01-07T08:40:04;3.38;;;1.00;;
58338;SDS011;68636;52.704;6.536;2024-01-07T08:42:31;2.53;;;0.98;;
58338;SDS011;68636;52.704;6.536;2024-01-07T08:44:57;6.13;;;1.30;;
58338;SDS011;68636;52.704;6.536;2024-01-07T08:47:25;2.10;;;0.77;;
58338;SDS011;68636;52.704;6.536;2024-01-07T08:49:51;3.63;;;1.17;;
58338;SDS011;68636;52.704;6.536;2024-01-07T08:52:19;3.53;;;0.93;;
58338;SDS011;68636;52.704;6.536;2024-01-07T08:54:45;1.77;;;0.60;;
58338;SDS011;68636;52.704;6.536;2024-01-07T08:57:11;2.47;;;0.73;;
58338;SDS011;68636;52.704;6.536;2024-01-07T08:59:37;3.28;;;1.10;;
58338;SDS011;68636;52.704;6.536;2024-01-07T09:02:03;2.35;;;0.80;;
58338;SDS011;68636;52.704;6.536;2024-01-07T09:04:29;2.58;;;0.77;;
58338;SDS011;68636;52.704;6.536;2024-01-07T09:06:55;1.42;;;0.40;;
58338;SDS011;68636;52.704;6.536;2024-01-07T09:09:22;2.05;;;0.73;;
58338;SDS011;68636;52.704;6.536;2024-01-07T09:11:49;4.82;;;1.20;;
58338;SDS011;68636;52.704;6.536;2024-01-07T09:14:15;3.10;;;0.63;;
58338;SDS011;68636;52.704;6.536;2024-01-07T09:16:42;4.18;;;1.13;;
58338;SDS011;68636;52.704;6.536;2024-01-07T09:19:08;4.85;;;1.10;;
58338;SDS011;68636;52.704;6.536;2024-01-07T09:21:34;3.65;;;0.90;;
58338;SDS011;68636;52.704;6.536;2024-01-07T09:24:00;5.22;;;1.08;;
58338;SDS011;68636;52.704;6.536;2024-01-07T09:26:26;1.92;;;0.70;;
58338;SDS011;68636;52.704;6.536;2024-01-07T09:28:53;3.60;;;1.10;;
58338;SDS011;68636;52.704;6.536;2024-01-07T09:31:19;3.28;;;0.90;;
58338;SDS011;68636;52.704;6.536;2024-01-07T09:33:46;2.47;;;0.70;;
58338;SDS011;68636;52.704;6.536;2024-01-07T09:36:12;5.38;;;1.55;;
58338;SDS011;68636;52.704;6.536;2024-01-07T09:38:38;2.97;;;0.80;;
58338;SDS011;68636;52.704;6.536;2024-01-07T09:41:04;7.05;;;1.45;;
58338;SDS011;68636;52.704;6.536;2024-01-07T09:43:30;4.05;;;0.65;;
58338;SDS011;68636;52.704;6.536;2024-01-07T09:45:56;4.15;;;1.50;;
58338;SDS011;68636;52.704;6.536;2024-01-07T09:48:23;5.78;;;1.58;;
58338;SDS011;68636;52.704;6.536;2024-01-07T09:50:50;4.07;;;1.23;;
58338;SDS011;68636;52.704;6.536;2024-01-07T09:53:18;4.35;;;1.40;;
58338;SDS011;68636;52.704;6.536;2024-01-07T09:55:47;5.60;;;1.17;;
58338;SDS011;68636;52.704;6.536;2024-01-07T09:58:16;5.72;;;0.88;;
58338;SDS011;68636;52.704;6.536;2024-01-07T10:00:42;3.67;;;0.93;;
58338;SDS011;68636;52.704;6.536;2024-01-07T10:03:08;2.33;;;0.60;;
58338;SDS011;68636;52.704;6.536;2024-01-07T10:05:35;4.07;;;0.90;;
58338;SDS011;68636;52.704;6.536;2024-01-07T10:08:01;4.35;;;1.40;;
58338;SDS011;68636;52.704;6.536;2024-01-07T10:10:27;5.97;;;1.30;;
58338;SDS011;68636;52.704;6.536;2024-01-07T10:12:54;5.50;;;0.85;;
58338;SDS011;68636;52.704;6.536;2024-01-07T10:15:22;2.50;;;0.70;;
58338;SDS011;68636;52.704;6.536;2024-01-07T10:17:48;3.25;;;0.85;;
58338;SDS011;68636;52.704;6.536;2024-01-07T10:20:14;3.78;;;0.88;;
58338;SDS011;68636;52.704;6.536;2024-01-07T10:22:45;3.97;;;1.08;;
58338;SDS011;68636;52.704;6.536;2024-01-07T10:25:13;2.88;;;0.82;;
58338;SDS011;68636;52.704;6.536;2024-01-07T10:27:39;7.45;;;1.52;;
58338;SDS011;68636;52.704;6.536;2024-01-07T10:30:05;3.45;;;1.10;;
58338;SDS011;68636;52.704;6.536;2024-01-07T10:32:31;5.10;;;0.70;;
58338;SDS011;68636;52.704;6.536;2024-01-07T10:35:01;3.50;;;0.68;;
58338;SDS011;68636;52.704;6.536;2024-01-07T10:37:28;3.90;;;0.90;;
58338;SDS011;68636;52.704;6.536;2024-01-07T10:39:56;2.85;;;0.90;;
58338;SDS011;68636;52.704;6.536;2024-01-07T10:42:26;5.60;;;0.90;;
58338;SDS011;68636;52.704;6.536;2024-01-07T10:44:52;2.83;;;0.75;;
58338;SDS011;68636;52.704;6.536;2024-01-07T10:47:18;4.07;;;0.60;;
58338;SDS011;68636;52.704;6.536;2024-01-07T10:49:45;2.38;;;0.70;;
58338;SDS011;68636;52.704;6.536;2024-01-07T10:52:13;4.38;;;0.73;;
58338;SDS011;68636;52.704;6.536;2024-01-07T10:54:40;7.28;;;0.70;;
58338;SDS011;68636;52.704;6.536;2024-01-07T10:59:52;2.13;;;0.70;;
58338;SDS011;68636;52.704;6.536;2024-01-07T11:02:19;3.08;;;0.60;;
58338;SDS011;68636;52.704;6.536;2024-01-07T11:09:55;3.10;;;0.43;;
58338;SDS011;68636;52.704;6.536;2024-01-07T11:12:22;2.47;;;0.80;;
58338;SDS011;68636;52.704;6.536;2024-01-07T11:14:48;2.72;;;0.77;;
58338;SDS011;68636;52.704;6.536;2024-01-07T11:20:04;7.43;;;1.10;;
58338;SDS011;68636;52.704;6.536;2024-01-07T11:22:30;2.85;;;0.63;;
58338;SDS011;68636;52.704;6.536;2024-01-07T11:25:01;1.38;;;0.40;;
58338;SDS011;68636;52.704;6.536;2024-01-07T11:27:31;3.78;;;1.00;;
58338;SDS011;68636;52.704;6.536;2024-01-07T11:30:00;3.38;;;0.60;;
58338;SDS011;68636;52.704;6.536;2024-01-07T11:32:30;1.80;;;0.50;;
58338;SDS011;68636;52.704;6.536;2024-01-07T11:34:56;3.40;;;0.68;;
58338;SDS011;68636;52.704;6.536;2024-01-07T11:37:24;2.85;;;1.00;;
58338;SDS011;68636;52.704;6.536;2024-01-07T11:39:51;2.55;;;0.50;;
58338;SDS011;68636;52.704;6.536;2024-01-07T11:42:18;3.67;;;0.63;;
58338;SDS011;68636;52.704;6.536;2024-01-07T11:44:47;9.25;;;1.27;;
58338;SDS011;68636;52.704;6.536;2024-01-07T11:47:14;2.90;;;0.90;;
58338;SDS011;68636;52.704;6.536;2024-01-07T11:49:40;3.90;;;1.00;;
58338;SDS011;68636;52.704;6.536;2024-01-07T11:52:06;4.00;;;0.90;;
58338;SDS011;68636;52.704;6.536;2024-01-07T11:57:00;2.63;;;0.80;;
58338;SDS011;68636;52.704;6.536;2024-01-07T11:59:27;1.40;;;0.45;;
58338;SDS011;68636;52.704;6.536;2024-01-07T12:01:55;5.38;;;1.00;;
58338;SDS011;68636;52.704;6.536;2024-01-07T12:04:21;2.17;;;0.47;;
58338;SDS011;68636;52.704;6.536;2024-01-07T12:06:48;6.50;;;1.03;;
58338;SDS011;68636;52.704;6.536;2024-01-07T12:09:14;2.50;;;0.70;;
58338;SDS011;68636;52.704;6.536;2024-01-07T12:11:41;5.30;;;0.63;;
58338;SDS011;68636;52.704;6.536;2024-01-07T12:14:21;4.40;;;1.02;;
58338;SDS011;68636;52.704;6.536;2024-01-07T12:16:47;3.30;;;0.73;;
58338;SDS011;68636;52.704;6.536;2024-01-07T12:19:14;3.13;;;0.80;;
58338;SDS011;68636;52.704;6.536;2024-01-07T12:21:40;4.22;;;1.35;;
58338;SDS011;68636;52.704;6.536;2024-01-07T12:24:06;2.30;;;0.63;;
58338;SDS011;68636;52.704;6.536;2024-01-07T12:26:32;5.30;;;0.80;;
58338;SDS011;68636;52.704;6.536;2024-01-07T12:28:59;2.25;;;0.60;;
58338;SDS011;68636;52.704;6.536;2024-01-07T12:31:29;4.45;;;0.50;;
58338;SDS011;68636;52.704;6.536;2024-01-07T12:33:56;5.60;;;1.00;;
58338;SDS011;68636;52.704;6.536;2024-01-07T12:36:22;3.22;;;0.45;;
58338;SDS011;68636;52.704;6.536;2024-01-07T12:38:48;3.15;;;0.85;;
58338;SDS011;68636;52.704;6.536;2024-01-07T12:41:16;4.15;;;1.02;;
58338;SDS011;68636;52.704;6.536;2024-01-07T12:43:42;7.90;;;0.98;;
58338;SDS011;68636;52.704;6.536;2024-01-07T12:46:08;4.57;;;1.25;;
58338;SDS011;68636;52.704;6.536;2024-01-07T12:48:34;7.13;;;1.25;;
58338;SDS011;68636;52.704;6.536;2024-01-07T12:51:01;8.02;;;2.42;;
58338;SDS011;68636;52.704;6.536;2024-01-07T12:53:27;7.50;;;1.70;;
58338;SDS011;68636;52.704;6.536;2024-01-07T12:55:54;4.03;;;1.30;;
58338;SDS011;68636;52.704;6.536;2024-01-07T12:58:20;5.27;;;1.87;;
58338;SDS011;68636;52.704;6.536;2024-01-07T13:00:46;5.67;;;0.93;;
58338;SDS011;68636;52.704;6.536;2024-01-07T13:03:13;6.43;;;1.40;;
58338;SDS011;68636;52.704;6.536;2024-01-07T13:05:43;3.88;;;1.00;;
58338;SDS011;68636;52.704;6.536;2024-01-07T13:08:11;6.15;;;2.08;;
58338;SDS011;68636;52.704;6.536;2024-01-07T13:10:37;5.20;;;1.50;;
58338;SDS011;68636;52.704;6.536;2024-01-07T13:13:04;3.00;;;1.20;;
58338;SDS011;68636;52.704;6.536;2024-01-07T13:15:30;4.45;;;1.17;;
58338;SDS011;68636;52.704;6.536;2024-01-07T13:17:57;6.13;;;1.05;;
58338;SDS011;68636;52.704;6.536;2024-01-07T13:20:23;6.05;;;1.40;;
58338;SDS011;68636;52.704;6.536;2024-01-07T13:22:49;2.35;;;0.68;;
58338;SDS011;68636;52.704;6.536;2024-01-07T13:25:15;5.30;;;1.60;;
58338;SDS011;68636;52.704;6.536;2024-01-07T13:27:41;5.32;;;1.20;;
58338;SDS011;68636;52.704;6.536;2024-01-07T13:30:08;4.63;;;1.20;;
58338;SDS011;68636;52.704;6.536;2024-01-07T13:32:35;5.88;;;1.77;;
58338;SDS011;68636;52.704;6.536;2024-01-07T13:35:05;6.63;;;2.08;;
58338;SDS011;68636;52.704;6.536;2024-01-07T13:37:35;7.88;;;2.10;;
58338;SDS011;68636;52.704;6.536;2024-01-07T13:40:02;6.80;;;2.15;;
58338;SDS011;68636;52.704;6.536;2024-01-07T13:42:29;24.45;;;1.80;;
58338;SDS011;68636;52.704;6.536;2024-01-07T13:44:55;8.80;;;3.58;;
58338;SDS011;68636;52.704;6.536;2024-01-07T13:47:21;7.82;;;2.50;;
58338;SDS011;68636;52.704;6.536;2024-01-07T13:49:47;8.13;;;2.60;;
58338;SDS011;68636;52.704;6.536;2024-01-07T13:52:13;4.50;;;1.30;;
58338;SDS011;68636;52.704;6.536;2024-01-07T13:54:40;9.20;;;2.22;;
58338;SDS011;68636;52.704;6.536;2024-01-07T13:57:06;7.97;;;2.50;;
58338;SDS011;68636;52.704;6.536;2024-01-07T13:59:32;7.80;;;1.95;;
58338;SDS011;68636;52.704;6.536;2024-01-07T14:01:59;7.13;;;2.13;;
58338;SDS011;68636;52.704;6.536;2024-01-07T14:04:25;5.10;;;1.90;;
58338;SDS011;68636;52.704;6.536;2024-01-07T14:06:56;11.82;;;2.42;;
58338;SDS011;68636;52.704;6.536;2024-01-07T14:09:23;5.47;;;1.83;;
58338;SDS011;68636;52.704;6.536;2024-01-07T14:11:49;7.03;;;2.20;;
58338;SDS011;68636;52.704;6.536;2024-01-07T14:14:15;6.20;;;1.75;;
58338;SDS011;68636;52.704;6.536;2024-01-07T14:16:44;9.70;;;2.80;;
58338;SDS011;68636;52.704;6.536;2024-01-07T14:19:10;7.07;;;2.08;;
58338;SDS011;68636;52.704;6.536;2024-01-07T14:21:36;7.30;;;2.58;;
58338;SDS011;68636;52.704;6.536;2024-01-07T14:24:02;6.65;;;2.05;;
58338;SDS011;68636;52.704;6.536;2024-01-07T14:26:28;6.68;;;1.55;;
58338;SDS011;68636;52.704;6.536;2024-01-07T14:28:55;8.10;;;2.20;;
58338;SDS011;68636;52.704;6.536;2024-01-07T14:31:21;6.30;;;2.40;;
58338;SDS011;68636;52.704;6.536;2024-01-07T14:33:47;10.23;;;3.88;;
58338;SDS011;68636;52.704;6.536;2024-01-07T14:36:13;4.20;;;1.67;;
58338;SDS011;68636;52.704;6.536;2024-01-07T14:38:43;7.53;;;2.30;;
58338;SDS011;68636;52.704;6.536;2024-01-07T14:41:10;8.30;;;2.58;;
58338;SDS011;68636;52.704;6.536;2024-01-07T14:43:36;7.35;;;2.10;;
58338;SDS011;68636;52.704;6.536;2024-01-07T14:46:02;7.13;;;2.22;;
58338;SDS011;68636;52.704;6.536;2024-01-07T14:48:28;8.77;;;2.85;;
58338;SDS011;68636;52.704;6.536;2024-01-07T14:50:55;7.82;;;2.92;;
58338;SDS011;68636;52.704;6.536;2024-01-07T14:53:21;9.02;;;2.70;;